This is the latest recevied weather packets stored in our database for station/object K0VSC-1. If no packets are shown the sender has not sent any weather packets the latest 10 day(s).
| Time | Temp. | Humidity | Pressure | Rain* | Wind** | Luminosity | Snow |
|---|---|---|---|---|---|---|---|
| 1777845790 | 19.44° C | 28% | 1004.3 hPa | 0 mm | - | 540 W/m² | - |
| 1777845490 | 18.89° C | 28% | 1004.5 hPa | 0 mm | - | 541 W/m² | - |
| 1777845190 | 18.89° C | 27% | 1004.6 hPa | 0 mm | - | 564 W/m² | - |
| 1777844890 | 18.89° C | 28% | 1004.7 hPa | 0 mm | - | 578 W/m² | - |
| 1777844590 | 18.89° C | 27% | 1004.8 hPa | 0 mm | - | 591 W/m² | - |
| 1777844290 | 18.89° C | 27% | 1004.8 hPa | 0 mm | - | 605 W/m² | - |
| 1777843990 | 18.89° C | 29% | 1004.8 hPa | 0 mm | - | 617 W/m² | - |
| 1777843690 | 18.89° C | 28% | 1004.9 hPa | 0 mm | - | 631 W/m² | - |
| 1777843390 | 18.89° C | 27% | 1005 hPa | 0 mm | - | 645 W/m² | - |
| 1777843090 | 18.89° C | 27% | 1005 hPa | 0 mm | - | 656 W/m² | - |
| 1777842790 | 18.89° C | 27% | 1005 hPa | 0 mm | - | 670 W/m² | - |
| 1777842490 | 18.89° C | 27% | 1005.2 hPa | 0 mm | - | 645 W/m² | - |
| 1777842190 | 18.89° C | 29% | 1005.1 hPa | 0 mm | - | 670 W/m² | - |
| 1777841890 | 18.89° C | 29% | 1005.3 hPa | 0 mm | - | 619 W/m² | - |
| 1777841590 | 18.89° C | 28% | 1005.1 hPa | 0 mm | - | 691 W/m² | - |
| 1777841290 | 18.89° C | 29% | 1005.2 hPa | 0 mm | - | 691 W/m² | - |
| 1777840990 | 18.89° C | 28% | 1005.4 hPa | 0 mm | - | 728 W/m² | - |
| 1777840690 | 18.89° C | 29% | 1005.5 hPa | 0 mm | - | 694 W/m² | - |
| 1777840390 | 18.33° C | 30% | 1005.6 hPa | 0 mm | - | 744 W/m² | - |
| 1777840090 | 18.33° C | 28% | 1005.6 hPa | 0 mm | - | 749 W/m² | - |
| 1777839790 | 18.89° C | 27% | 1005.7 hPa | 0 mm | - | 756 W/m² | - |
| 1777839490 | 18.89° C | 28% | 1005.7 hPa | 0 mm | - | 765 W/m² | - |
| 1777839190 | 18.33° C | 28% | 1005.8 hPa | 0 mm | - | 772 W/m² | - |
| 1777838890 | 18.33° C | 27% | 1005.9 hPa | 0 mm | - | 779 W/m² | - |
| 1777838590 | 18.33° C | 28% | 1005.9 hPa | 0 mm | - | 788 W/m² | - |
* Rain latest hour (hover to see other rain measurements)
** Current wind speed in m/s (hover to see current wind gust speed)